Terminal Aerodrome Forecast
Issued by NWS Sterling, VA

Current Version | Previous Version | Text Only | Print | Product List | Glossary On
Versions: 1 2 3 4 5 6 7 8 9 10 11 12 13
000
FTUS41 KLWX 291100
TAFCHO
TAF
KCHO 291132Z 2912/3012 VRB03KT P6SM BKN100
     FM291500 18008KT P6SM BKN100
     FM291800 18010G18KT P6SM SCT050 OVC090
     FM292300 21006KT P6SM BKN050
     FM300800 27010KT P6SM SCT050=

USA.gov is the U.S. government's official web portal to all federal, state and local government web resources and services.